createdAt,value
2019-03-30T00:00:06.670Z,100635.24
2019-03-30T00:02:35.956Z,100630.63
2019-03-30T00:05:08.966Z,100636.47
2019-03-30T00:07:38.257Z,100634.35
2019-03-30T00:10:07.925Z,100632.81
2019-03-30T00:12:37.335Z,100629.91
2019-03-30T00:15:06.737Z,100631.44
2019-03-30T00:17:36.055Z,100640.45
2019-03-30T00:20:06.299Z,100637.02
2019-03-30T00:22:35.610Z,100637.09
2019-03-30T00:25:06.862Z,100635.72
2019-03-30T00:27:36.197Z,100636.41
2019-03-30T00:30:08.884Z,100640.37
2019-03-30T00:32:38.200Z,100643.12
2019-03-30T00:35:07.447Z,100643.94
2019-03-30T00:37:36.655Z,100645.41
2019-03-30T00:40:07.507Z,100644.44
2019-03-30T00:42:36.858Z,100645.81
2019-03-30T00:45:07.368Z,100644.04
2019-03-30T00:47:36.698Z,100643.38
2019-03-30T00:50:06.186Z,100641.24
2019-03-30T00:52:35.506Z,100640.22
2019-03-30T00:55:06.501Z,100644.36
2019-03-30T00:57:35.903Z,100637.75
2019-03-30T01:00:06.780Z,100631.09
2019-03-30T01:02:35.968Z,100634.56
2019-03-30T01:05:06.622Z,100633.08
2019-03-30T01:07:35.878Z,100632.56
2019-03-30T01:10:08.365Z,100630.19
2019-03-30T01:12:37.991Z,100621.78
2019-03-30T01:15:08.584Z,100617.91
2019-03-30T01:17:37.912Z,100617.65
2019-03-30T01:20:08.798Z,100616.99
2019-03-30T01:22:38.176Z,100619.09
2019-03-30T01:25:08.309Z,100613.93
2019-03-30T01:27:37.648Z,100610.52
2019-03-30T01:30:07.707Z,100611.21
2019-03-30T01:32:36.978Z,100604.02
2019-03-30T01:35:07.541Z,100599.71
2019-03-30T01:37:36.808Z,100600.92
2019-03-30T01:40:07.664Z,100608.46
2019-03-30T01:42:37.011Z,100607.10
2019-03-30T01:45:08.575Z,100603.86
2019-03-30T01:47:38.148Z,100611.58
2019-03-30T01:50:17.114Z,100609.03
2019-03-30T01:52:40.204Z,100604.58
2019-03-30T01:55:09.453Z,100613.48
2019-03-30T01:57:38.686Z,100609.04
2019-03-30T02:00:08.710Z,100609.73
2019-03-30T02:02:38.014Z,100608.88
2019-03-30T02:05:07.397Z,100603.55
2019-03-30T02:07:36.647Z,100602.33
2019-03-30T02:10:06.428Z,100601.30
2019-03-30T02:12:35.673Z,100596.34
2019-03-30T02:15:16.209Z,100594.97
2019-03-30T02:17:45.452Z,100599.77
2019-03-30T02:20:31.088Z,100602.48
2019-03-30T02:22:57.920Z,100599.55
2019-03-30T02:25:27.165Z,100603.34
2019-03-30T02:27:56.428Z,100600.56
2019-03-30T02:30:25.729Z,100590.59
2019-03-30T02:32:55.045Z,100595.38
2019-03-30T02:35:26.452Z,100599.98
2019-03-30T02:37:55.285Z,100593.96
2019-03-30T02:40:24.608Z,100599.13
2019-03-30T02:42:53.873Z,100597.42
2019-03-30T02:45:23.108Z,100593.30
2019-03-30T02:47:52.305Z,100597.43
2019-03-30T02:50:21.496Z,100595.23
2019-03-30T02:52:50.774Z,100591.80
2019-03-30T02:55:20.504Z,100594.06
2019-03-30T02:57:49.744Z,100591.31
2019-03-30T03:00:19.971Z,100592.50
2019-03-30T03:02:49.229Z,100590.98
2019-03-30T03:05:18.737Z,100586.52
2019-03-30T03:07:48.032Z,100589.79
2019-03-30T03:10:17.350Z,100587.92
2019-03-30T03:12:46.563Z,100590.46
2019-03-30T03:15:15.759Z,100593.40
2019-03-30T03:17:45.120Z,100594.25
2019-03-30T03:20:14.308Z,100599.23
2019-03-30T03:22:43.596Z,100585.50
2019-03-30T03:25:12.785Z,100586.20
2019-03-30T03:27:42.038Z,100583.80
2019-03-30T03:30:11.350Z,100582.10
2019-03-30T03:32:40.654Z,100581.76
2019-03-30T03:35:09.887Z,100580.91
2019-03-30T03:37:45.736Z,100584.64
2019-03-30T03:40:09.986Z,100578.30
2019-03-30T03:42:39.307Z,100584.97
2019-03-30T03:45:08.658Z,100578.98
2019-03-30T03:47:37.853Z,100582.58
2019-03-30T03:50:07.328Z,100584.14
2019-03-30T03:52:36.586Z,100587.92
2019-03-30T03:55:05.845Z,100580.00
2019-03-30T03:57:37.514Z,100584.81
2019-03-30T04:00:07.906Z,100586.88
2019-03-30T04:02:37.634Z,100585.86
2019-03-30T04:05:08.154Z,100589.28
2019-03-30T04:07:41.675Z,100593.78
2019-03-30T04:10:10.995Z,100589.12
2019-03-30T04:12:41.126Z,100588.11
2019-03-30T04:15:14.249Z,100584.84
2019-03-30T04:17:43.514Z,100585.69
2019-03-30T04:20:15.997Z,100580.91
2019-03-30T04:22:45.275Z,100587.56
2019-03-30T04:25:15.931Z,100589.09
2019-03-30T04:27:45.686Z,100586.00
2019-03-30T04:30:14.976Z,100587.75
2019-03-30T04:32:44.244Z,100588.05
2019-03-30T04:35:13.494Z,100595.58
2019-03-30T04:37:42.815Z,100593.55
2019-03-30T04:40:12.117Z,100588.05
2019-03-30T04:42:41.374Z,100587.86
2019-03-30T04:45:10.696Z,100585.77
2019-03-30T04:47:40.042Z,100596.22
2019-03-30T04:50:10.040Z,100592.77
2019-03-30T04:52:39.219Z,100598.80
2019-03-30T04:55:08.468Z,100594.34
2019-03-30T04:57:37.749Z,100599.64
2019-03-30T05:00:08.633Z,100596.87
2019-03-30T05:02:38.333Z,100602.00
2019-03-30T05:05:08.052Z,100605.14
2019-03-30T05:07:37.233Z,100596.42
2019-03-30T05:10:07.254Z,100604.38
2019-03-30T05:12:36.668Z,100598.85
2019-03-30T05:15:07.564Z,100592.69
2019-03-30T05:17:46.763Z,100585.86
2019-03-30T05:20:08.076Z,100580.05
2019-03-30T05:22:37.462Z,100586.55
2019-03-30T05:25:06.808Z,100589.12
2019-03-30T05:27:36.188Z,100590.83
2019-03-30T05:30:07.393Z,100586.19
2019-03-30T05:32:36.802Z,100578.95
2019-03-30T05:35:07.092Z,100589.94
2019-03-30T05:37:36.422Z,100589.42
2019-03-30T05:40:07.536Z,100589.42
2019-03-30T05:42:36.856Z,100584.81
2019-03-30T05:45:07.733Z,100588.75
2019-03-30T05:47:37.120Z,100587.41
2019-03-30T05:50:07.700Z,100586.00
2019-03-30T05:52:37.103Z,100586.86
2019-03-30T05:55:06.787Z,100580.47
2019-03-30T05:57:36.184Z,100578.61
2019-03-30T06:00:09.523Z,100583.25
2019-03-30T06:02:38.953Z,100581.95
2019-03-30T06:05:08.217Z,100582.23
2019-03-30T06:07:37.639Z,100592.09
2019-03-30T06:10:07.141Z,100588.03
2019-03-30T06:12:36.518Z,100592.13
2019-03-30T06:15:08.719Z,100590.08
2019-03-30T06:17:38.119Z,100587.01
2019-03-30T06:20:07.567Z,100588.60
2019-03-30T06:22:40.499Z,100589.09
2019-03-30T06:25:08.152Z,100592.69
2019-03-30T06:27:37.420Z,100593.88
2019-03-30T06:30:26.711Z,100599.41
2019-03-30T06:32:56.057Z,100594.58
2019-03-30T06:35:25.428Z,100598.27
2019-03-30T06:37:54.871Z,100599.69
2019-03-30T06:40:24.372Z,100596.32
2019-03-30T06:42:53.721Z,100604.70
2019-03-30T06:45:23.266Z,100602.34
2019-03-30T06:47:53.029Z,100601.81
2019-03-30T06:50:23.173Z,100596.91
2019-03-30T06:52:58.289Z,100595.05
2019-03-30T06:55:24.046Z,100593.73
2019-03-30T06:57:53.704Z,100598.23
2019-03-30T07:00:35.993Z,100601.16
2019-03-30T07:03:06.805Z,100601.31
2019-03-30T07:05:41.070Z,100597.87
2019-03-30T07:08:12.658Z,100594.45
2019-03-30T07:10:43.836Z,100594.25
2019-03-30T07:13:13.625Z,100592.11
2019-03-30T07:15:46.743Z,100596.81
2019-03-30T07:18:16.631Z,100594.68
2019-03-30T07:20:46.156Z,100588.42
2019-03-30T07:23:16.053Z,100586.28
2019-03-30T07:25:45.439Z,100585.59
2019-03-30T07:28:14.979Z,100589.67
2019-03-30T07:30:44.310Z,100584.80
2019-03-30T07:33:13.657Z,100588.59
2019-03-30T07:35:43.059Z,100585.40
2019-03-30T07:38:12.435Z,100580.02
2019-03-30T07:40:41.717Z,100580.83
2019-03-30T07:43:11.237Z,100587.18
2019-03-30T07:45:40.516Z,100582.03
2019-03-30T07:48:09.913Z,100584.72
2019-03-30T07:50:39.419Z,100581.59
2019-03-30T07:53:08.676Z,100576.92
2019-03-30T07:55:38.190Z,100577.25
2019-03-30T07:58:07.479Z,100574.00
2019-03-30T08:00:36.928Z,100571.19
2019-03-30T08:03:06.275Z,100573.42
2019-03-30T08:05:35.666Z,100574.36
2019-03-30T08:08:04.850Z,100572.42
2019-03-30T08:10:34.269Z,100567.98
2019-03-30T08:13:03.629Z,100570.58
2019-03-30T08:15:32.962Z,100565.92
2019-03-30T08:18:02.410Z,100569.55
2019-03-30T08:20:31.750Z,100574.86
2019-03-30T08:23:01.001Z,100569.07
2019-03-30T08:25:30.377Z,100569.05
2019-03-30T08:27:59.648Z,100567.47
2019-03-30T08:30:29.244Z,100565.77
2019-03-30T08:32:58.696Z,100575.38
2019-03-30T08:35:28.144Z,100571.77
2019-03-30T08:37:57.550Z,100576.16
2019-03-30T08:40:26.877Z,100577.42
2019-03-30T08:42:56.376Z,100566.92
2019-03-30T08:45:25.634Z,100571.11
2019-03-30T08:47:54.993Z,100571.23
2019-03-30T08:50:24.321Z,100576.83
2019-03-30T08:52:53.691Z,100570.18
2019-03-30T08:55:23.031Z,100574.52
2019-03-30T08:57:52.415Z,100563.13
2019-03-30T09:00:41.860Z,100572.06
2019-03-30T09:03:11.296Z,100564.28
2019-03-30T09:05:40.629Z,100565.55
2019-03-30T09:08:09.898Z,100563.95
2019-03-30T09:10:39.404Z,100560.85
2019-03-30T09:13:08.715Z,100554.33
2019-03-30T09:15:38.035Z,100560.11
2019-03-30T09:18:07.795Z,100555.53
2019-03-30T09:20:37.205Z,100562.60
2019-03-30T09:23:06.456Z,100552.91
2019-03-30T09:25:35.883Z,100557.38
2019-03-30T09:28:05.193Z,100544.20
2019-03-30T09:30:34.563Z,100552.89
2019-03-30T09:33:03.899Z,100546.31
2019-03-30T09:35:33.220Z,100553.09
2019-03-30T09:38:02.752Z,100550.23
2019-03-30T09:40:32.003Z,100549.52
2019-03-30T09:43:01.369Z,100548.42
2019-03-30T09:45:30.771Z,100538.31
2019-03-30T09:48:00.083Z,100548.38
2019-03-30T09:50:29.335Z,100547.38
2019-03-30T09:52:58.855Z,100541.58
2019-03-30T09:55:28.482Z,100542.84
2019-03-30T09:57:57.836Z,100537.12
2019-03-30T10:00:27.227Z,100532.52
2019-03-30T10:02:56.562Z,100528.37
2019-03-30T10:05:25.911Z,100528.13
2019-03-30T10:07:55.275Z,100522.03
2019-03-30T10:10:24.599Z,100530.66
2019-03-30T10:12:53.784Z,100527.89
2019-03-30T10:15:23.189Z,100531.66
2019-03-30T10:17:52.593Z,100529.10
2019-03-30T10:20:22.021Z,100523.02
2019-03-30T10:22:51.513Z,100516.84
2019-03-30T10:25:20.822Z,100515.63
2019-03-30T10:27:50.158Z,100519.52
2019-03-30T10:30:19.359Z,100520.42
2019-03-30T10:32:48.694Z,100517.88
2019-03-30T10:35:18.038Z,100516.36
2019-03-30T10:37:47.364Z,100515.11
2019-03-30T10:40:16.730Z,100517.11
2019-03-30T10:42:47.485Z,100515.16
2019-03-30T10:45:16.855Z,100507.61
2019-03-30T10:47:46.276Z,100502.11
2019-03-30T10:50:15.606Z,100505.02
2019-03-30T10:52:44.987Z,100503.81
2019-03-30T10:55:14.319Z,100495.84
2019-03-30T10:57:43.734Z,100494.70
2019-03-30T11:00:18.108Z,100488.13
2019-03-30T11:02:47.513Z,100485.38
2019-03-30T11:05:16.911Z,100481.56
2019-03-30T11:07:46.299Z,100492.66
2019-03-30T11:10:15.638Z,100483.06
2019-03-30T11:12:45.066Z,100480.97
2019-03-30T11:15:14.525Z,100489.13
2019-03-30T11:33:26.434Z,100454.78
2019-03-30T11:35:55.619Z,100459.59
2019-03-30T11:38:24.797Z,100458.38
2019-03-30T11:40:54.027Z,100451.66
2019-03-30T11:43:23.282Z,100446.20
2019-03-30T11:45:52.461Z,100444.75
2019-03-30T11:48:21.747Z,100445.19
2019-03-30T11:50:50.935Z,100438.34
2019-03-30T11:53:20.216Z,100430.69
2019-03-30T11:55:49.459Z,100431.28
2019-03-30T11:58:18.641Z,100430.91
2019-03-30T12:00:47.922Z,100419.60
2019-03-30T12:03:17.119Z,100420.33
2019-03-30T12:05:46.423Z,100421.05
2019-03-30T12:08:15.706Z,100422.05
2019-03-30T12:10:44.990Z,100415.47
2019-03-30T12:13:14.181Z,100406.99
2019-03-30T12:15:43.713Z,100413.72
2019-03-30T12:18:13.211Z,100406.55
2019-03-30T12:20:42.650Z,100412.22
2019-03-30T12:23:11.888Z,100403.37
2019-03-30T12:25:41.183Z,100398.62
2019-03-30T12:28:10.370Z,100391.11
2019-03-30T12:30:39.802Z,100387.77
2019-03-30T12:33:09.052Z,100387.46
2019-03-30T12:35:38.232Z,100374.90
2019-03-30T12:38:07.508Z,100376.00
2019-03-30T12:40:36.689Z,100372.13
2019-03-30T12:43:05.975Z,100372.30
2019-03-30T12:45:35.345Z,100365.39
2019-03-30T12:48:04.527Z,100366.98
2019-03-30T12:50:33.709Z,100367.94
2019-03-30T12:53:02.921Z,100359.84
2019-03-30T12:55:32.104Z,100352.06
2019-03-30T12:58:01.420Z,100342.81
2019-03-30T13:00:30.585Z,100350.70
2019-03-30T13:02:59.982Z,100348.38
2019-03-30T13:05:29.165Z,100336.64
2019-03-30T13:07:58.373Z,100339.73
2019-03-30T13:10:28.137Z,100333.94
2019-03-30T13:12:57.386Z,100335.41
2019-03-30T13:15:26.590Z,100330.06
2019-03-30T13:17:55.897Z,100327.59
2019-03-30T13:20:25.227Z,100327.88
2019-03-30T13:22:54.412Z,100324.52
2019-03-30T13:25:23.701Z,100320.30
2019-03-30T13:27:53.503Z,100318.28
2019-03-30T13:30:23.125Z,100311.57
2019-03-30T13:32:53.487Z,100315.69
2019-03-30T13:35:22.879Z,100315.88
2019-03-30T13:37:52.152Z,100308.86
2019-03-30T13:40:21.374Z,100301.03
2019-03-30T13:42:50.558Z,100299.31
2019-03-30T13:45:19.757Z,100298.36
2019-03-30T13:47:49.763Z,100292.95
2019-03-30T13:50:18.971Z,100291.69
2019-03-30T13:52:48.211Z,100294.08
2019-03-30T13:55:17.393Z,100297.10
2019-03-30T13:57:46.585Z,100287.26
2019-03-30T14:00:15.814Z,100289.85
2019-03-30T14:02:45.072Z,100279.92
2019-03-30T14:05:14.249Z,100289.51
2019-03-30T14:07:43.468Z,100289.30
2019-03-30T14:10:12.859Z,100283.38
2019-03-30T14:12:42.086Z,100287.42
2019-03-30T14:15:11.343Z,100284.30
2019-03-30T14:17:40.626Z,100272.30
2019-03-30T14:20:10.696Z,100280.93
2019-03-30T14:22:39.953Z,100276.03
2019-03-30T14:25:09.138Z,100266.43
2019-03-30T14:27:38.415Z,100262.08
2019-03-30T14:30:09.848Z,100262.42
2019-03-30T14:32:39.136Z,100261.46
2019-03-30T14:35:08.385Z,100258.23
2019-03-30T14:37:37.593Z,100265.08
2019-03-30T14:40:08.077Z,100263.30
2019-03-30T14:42:37.257Z,100257.06
2019-03-30T14:45:08.067Z,100249.12
2019-03-30T14:47:37.274Z,100248.20
2019-03-30T14:50:08.232Z,100251.16
2019-03-30T14:52:37.455Z,100247.05
2019-03-30T14:55:08.128Z,100233.30
2019-03-30T14:57:37.450Z,100229.01
2019-03-30T15:00:09.443Z,100239.68
2019-03-30T15:02:38.902Z,100230.64
2019-03-30T15:05:08.314Z,100222.13
2019-03-30T15:07:37.551Z,100226.41
2019-03-30T15:10:08.259Z,100220.09
2019-03-30T15:12:38.066Z,100219.55
2019-03-30T15:15:09.453Z,100214.39
2019-03-30T15:17:40.726Z,100212.20
2019-03-30T15:20:10.572Z,100204.59
2019-03-30T15:22:39.769Z,100200.64
2019-03-30T15:25:09.217Z,100200.22
2019-03-30T15:27:38.400Z,100199.23
2019-03-30T15:30:08.336Z,100197.13
2019-03-30T15:32:37.618Z,100196.21
2019-03-30T15:35:07.951Z,100185.07
2019-03-30T15:37:37.176Z,100190.81
2019-03-30T15:40:06.632Z,100187.42
2019-03-30T15:42:35.909Z,100189.03
2019-03-30T15:45:07.767Z,100183.78
2019-03-30T15:47:37.040Z,100180.22
2019-03-30T15:50:07.516Z,100184.94
2019-03-30T15:52:36.690Z,100184.73
2019-03-30T15:55:07.922Z,100186.80
2019-03-30T15:57:37.372Z,100182.59
2019-03-30T16:00:09.151Z,100186.78
2019-03-30T16:02:38.562Z,100183.75
2019-03-30T16:05:07.769Z,100180.09
2019-03-30T16:07:36.963Z,100181.27
2019-03-30T16:10:06.505Z,100181.35
2019-03-30T16:12:35.737Z,100177.08
2019-03-30T16:15:06.257Z,100170.00
2019-03-30T16:17:35.502Z,100162.83
2019-03-30T16:20:06.361Z,100167.50
2019-03-30T16:22:35.607Z,100164.21
2019-03-30T16:25:07.358Z,100163.09
2019-03-30T16:27:39.212Z,100157.87
2019-03-30T16:30:08.493Z,100140.62
2019-03-30T16:32:37.753Z,100144.80
2019-03-30T16:35:07.007Z,100143.62
2019-03-30T16:37:36.236Z,100139.84
2019-03-30T16:40:05.961Z,100131.91
2019-03-30T16:42:35.274Z,100129.17
2019-03-30T16:45:06.301Z,100127.66
2019-03-30T16:47:35.556Z,100122.04
2019-03-30T16:50:07.101Z,100128.37
2019-03-30T16:52:41.609Z,100129.42
2019-03-30T16:55:10.787Z,100127.73
2019-03-30T16:57:43.750Z,100120.55
2019-03-30T17:00:11.078Z,100122.85
2019-03-30T17:02:40.407Z,100125.22
2019-03-30T17:05:10.686Z,100122.29
2019-03-30T17:07:40.007Z,100120.23
2019-03-30T17:10:09.264Z,100120.31
2019-03-30T17:12:39.170Z,100119.95
2019-03-30T17:15:09.151Z,100116.28
2019-03-30T17:17:38.350Z,100122.56
2019-03-30T17:20:08.172Z,100123.15
2019-03-30T17:22:37.479Z,100123.69
2019-03-30T17:25:07.031Z,100122.44
2019-03-30T17:27:37.019Z,100117.51
2019-03-30T17:30:09.283Z,100118.20
2019-03-30T17:32:38.730Z,100119.63
2019-03-30T17:35:07.980Z,100116.20
2019-03-30T17:37:37.214Z,100108.58
2019-03-30T17:40:08.106Z,100108.27
2019-03-30T17:42:38.933Z,100111.39
2019-03-30T17:45:10.153Z,100118.92
2019-03-30T17:47:39.402Z,100119.48
2019-03-30T17:50:08.717Z,100119.57
2019-03-30T17:52:38.135Z,100120.98
2019-03-30T17:55:07.388Z,100119.19
2019-03-30T17:57:36.595Z,100120.69
2019-03-30T18:00:13.709Z,100116.35
2019-03-30T18:02:43.135Z,100116.76
2019-03-30T18:05:12.372Z,100120.28
2019-03-30T18:07:41.556Z,100124.87
2019-03-30T18:10:10.981Z,100114.55
2019-03-30T18:12:40.368Z,100118.41
2019-03-30T18:15:09.858Z,100113.02
2019-03-30T18:17:39.177Z,100113.88
2019-03-30T18:20:08.726Z,100110.39
2019-03-30T18:22:39.685Z,100112.09
2019-03-30T18:25:11.246Z,100109.05
2019-03-30T18:27:40.666Z,100116.59
2019-03-30T18:30:10.022Z,100116.20
2019-03-30T18:32:39.436Z,100108.67
2019-03-30T18:35:09.058Z,100111.13
2019-03-30T18:37:38.472Z,100111.66
2019-03-30T18:40:09.251Z,100105.70
2019-03-30T18:42:38.528Z,100101.13
2019-03-30T18:45:07.953Z,100099.30
2019-03-30T18:47:37.302Z,100102.66
2019-03-30T18:50:08.424Z,100099.86
2019-03-30T18:52:37.649Z,100098.55
2019-03-30T18:55:07.314Z,100095.85
2019-03-30T18:57:36.820Z,100090.55
2019-03-30T19:00:07.835Z,100089.00
2019-03-30T19:02:37.114Z,100091.91
2019-03-30T19:05:06.934Z,100089.71
2019-03-30T19:07:36.584Z,100089.52
2019-03-30T19:10:06.627Z,100090.06
2019-03-30T19:12:35.824Z,100084.11
2019-03-30T19:15:06.347Z,100091.81
2019-03-30T19:17:36.820Z,100087.34
2019-03-30T19:20:07.083Z,100090.29
2019-03-30T19:22:36.596Z,100088.59
2019-03-30T19:25:06.999Z,100083.71
2019-03-30T19:27:36.509Z,100077.55
2019-03-30T19:30:07.960Z,100077.61
2019-03-30T19:32:37.445Z,100077.80
2019-03-30T19:35:07.427Z,100075.08
2019-03-30T19:37:36.990Z,100069.09
2019-03-30T19:40:06.806Z,100067.80
2019-03-30T19:42:36.479Z,100068.66
2019-03-30T19:45:07.448Z,100064.03
2019-03-30T19:47:37.174Z,100066.27
2019-03-30T19:50:06.695Z,100061.33
2019-03-30T19:52:40.278Z,100054.67
2019-03-30T19:55:07.793Z,100065.30
2019-03-30T19:57:37.237Z,100061.86
2019-03-30T20:00:09.599Z,100057.63
2019-03-30T20:02:38.421Z,100054.93
2019-03-30T20:05:07.804Z,100050.95
2019-03-30T20:07:37.222Z,100055.83
2019-03-30T20:10:06.709Z,100056.49
2019-03-30T20:12:36.450Z,100050.69
2019-03-30T20:15:07.371Z,100053.79
2019-03-30T20:17:36.858Z,100052.61
2019-03-30T20:20:06.671Z,100052.42
2019-03-30T20:22:36.133Z,100045.23
2019-03-30T20:25:09.713Z,100042.50
2019-03-30T20:27:39.197Z,100038.75
2019-03-30T20:30:09.854Z,100038.44
2019-03-30T20:32:39.301Z,100035.70
2019-03-30T20:35:08.993Z,100040.32
2019-03-30T20:37:38.464Z,100033.81
2019-03-30T20:40:08.320Z,100030.90
2019-03-30T20:42:39.345Z,100022.84
2019-03-30T20:45:08.669Z,100027.11
2019-03-30T20:47:38.258Z,100030.53
2019-03-30T20:50:07.812Z,100019.26
2019-03-30T20:52:37.265Z,100018.22
2019-03-30T20:55:07.184Z,100017.18
2019-03-30T20:57:36.714Z,100013.77
2019-03-30T21:00:10.493Z,100014.97
2019-03-30T21:02:40.033Z,100013.23
2019-03-30T21:05:09.507Z,100009.34
2019-03-30T21:07:41.698Z,100001.64
2019-03-30T21:10:10.379Z,100007.97
2019-03-30T21:12:39.698Z,100004.53
2019-03-30T21:15:09.195Z,99998.38
2019-03-30T21:17:38.657Z,99996.83
2019-03-30T21:20:09.672Z,100003.17
2019-03-30T21:22:38.998Z,100003.00
2019-03-30T21:25:08.396Z,100002.80
2019-03-30T21:27:37.886Z,100000.05
2019-03-30T21:30:08.531Z,99993.75
2019-03-30T21:32:38.097Z,99992.53
2019-03-30T21:35:08.004Z,99991.98
2019-03-30T21:37:37.528Z,99989.09
2019-03-30T21:40:07.343Z,99993.02
2019-03-30T21:42:36.774Z,99983.59
2019-03-30T21:45:08.229Z,99984.25
2019-03-30T21:47:37.654Z,99984.59
2019-03-30T21:50:07.956Z,99980.48
2019-03-30T21:52:37.457Z,99980.86
2019-03-30T21:55:07.405Z,99984.09
2019-03-30T21:57:36.857Z,99984.72
2019-03-30T22:00:11.093Z,99990.88
2019-03-30T22:02:39.980Z,99988.98
2019-03-30T22:05:09.461Z,99985.17
2019-03-30T22:07:38.760Z,99982.30
2019-03-30T22:10:09.105Z,99979.73
2019-03-30T22:12:39.635Z,99980.08
2019-03-30T22:15:09.029Z,99974.20
2019-03-30T22:17:38.496Z,99977.42
2019-03-30T22:20:09.577Z,99967.94
2019-03-30T22:22:38.755Z,99963.56
2019-03-30T22:25:08.100Z,99957.42
2019-03-30T22:27:37.548Z,99957.17
2019-03-30T22:30:07.486Z,99960.05
2019-03-30T22:32:36.994Z,99958.00
2019-03-30T22:35:08.510Z,99955.90
2019-03-30T22:37:37.852Z,99949.76
2019-03-30T22:40:07.317Z,99947.96
2019-03-30T22:42:36.773Z,99944.18
2019-03-30T22:45:06.991Z,99948.95
2019-03-30T22:47:36.172Z,99945.23
2019-03-30T22:50:07.681Z,99937.63
2019-03-30T22:52:36.853Z,99944.66
2019-03-30T22:55:07.551Z,99938.05
2019-03-30T22:57:37.059Z,99934.09
2019-03-30T23:00:08.345Z,99938.92
2019-03-30T23:02:37.783Z,99935.01
2019-03-30T23:05:07.030Z,99931.73
2019-03-30T23:07:36.276Z,99929.73
2019-03-30T23:10:07.073Z,99931.66
2019-03-30T23:12:36.467Z,99926.98
2019-03-30T23:15:05.861Z,99929.53
2019-03-30T23:17:35.282Z,99930.42
2019-03-30T23:20:05.690Z,99929.83
2019-03-30T23:22:34.998Z,99929.70
2019-03-30T23:25:06.012Z,99929.53
2019-03-30T23:27:35.207Z,99923.36
2019-03-30T23:30:06.659Z,99921.48
2019-03-30T23:32:35.864Z,99911.91
2019-03-30T23:35:06.007Z,99913.91
2019-03-30T23:37:35.348Z,99914.55
2019-03-30T23:40:06.271Z,99914.03
2019-03-30T23:42:35.545Z,99910.52
2019-03-30T23:45:05.149Z,99907.36
2019-03-30T23:47:34.522Z,99903.86
2019-03-30T23:50:04.570Z,99901.98
2019-03-30T23:52:33.824Z,99899.91
2019-03-30T23:55:03.132Z,99896.96
2019-03-30T23:57:32.300Z,99884.50
